createdAt,value
2018-07-20T00:00:26.016Z,0.00
2018-07-20T00:01:26.205Z,0.00
2018-07-20T00:02:26.388Z,0.00
2018-07-20T00:03:26.566Z,0.00
2018-07-20T00:04:26.746Z,0.00
2018-07-20T00:05:26.931Z,0.00
2018-07-20T00:06:27.107Z,0.00
2018-07-20T00:07:27.284Z,0.00
2018-07-20T00:08:27.481Z,0.00
2018-07-20T00:09:27.654Z,0.00
2018-07-20T00:10:27.837Z,0.00
2018-07-20T00:11:28.013Z,0.00
2018-07-20T00:12:28.190Z,0.00
2018-07-20T00:13:28.373Z,0.00
2018-07-20T00:14:28.542Z,0.00
2018-07-20T00:15:28.737Z,0.00
2018-07-20T00:16:28.910Z,0.00
2018-07-20T00:17:29.094Z,0.00
2018-07-20T00:18:29.271Z,0.00
2018-07-20T00:19:29.435Z,0.00
2018-07-20T00:20:29.615Z,0.00
2018-07-20T00:21:29.793Z,0.00
2018-07-20T00:22:29.975Z,0.00
2018-07-20T00:23:30.171Z,0.00
2018-07-20T00:24:30.389Z,0.00
2018-07-20T00:25:30.565Z,0.00
2018-07-20T00:26:30.742Z,0.00
2018-07-20T00:27:30.924Z,0.00
2018-07-20T00:28:31.104Z,0.00
2018-07-20T00:29:31.280Z,0.00
2018-07-20T00:30:31.456Z,0.00
2018-07-20T00:31:31.632Z,0.00
2018-07-20T00:32:31.823Z,0.00
2018-07-20T00:33:31.998Z,0.00
2018-07-20T00:34:32.171Z,0.00
2018-07-20T00:35:32.349Z,0.00
2018-07-20T00:36:32.531Z,0.00
2018-07-20T00:37:32.713Z,0.00
2018-07-20T00:38:32.886Z,0.00
2018-07-20T00:39:33.067Z,0.00
2018-07-20T00:40:33.240Z,0.00
2018-07-20T00:41:33.411Z,0.00
2018-07-20T00:42:33.585Z,0.00
2018-07-20T00:43:33.764Z,0.00
2018-07-20T00:44:33.946Z,0.00
2018-07-20T00:45:34.120Z,0.00
2018-07-20T00:46:34.293Z,0.00
2018-07-20T00:47:34.474Z,0.00
2018-07-20T00:48:34.651Z,0.00
2018-07-20T00:49:34.837Z,0.00
2018-07-20T00:50:35.010Z,0.00
2018-07-20T00:51:35.186Z,0.00
2018-07-20T00:52:35.366Z,0.00
2018-07-20T00:53:35.548Z,0.00
2018-07-20T00:54:35.725Z,0.00
2018-07-20T00:55:35.899Z,0.00
2018-07-20T00:56:36.078Z,0.00
2018-07-20T00:57:36.252Z,0.00
2018-07-20T00:58:36.426Z,0.00
2018-07-20T00:59:36.619Z,0.00
2018-07-20T01:00:36.785Z,0.00
2018-07-20T01:01:36.961Z,0.00
2018-07-20T01:02:37.144Z,0.00
2018-07-20T01:03:37.315Z,0.00
2018-07-20T01:04:37.487Z,0.00
2018-07-20T01:05:37.659Z,0.00
2018-07-20T01:06:37.839Z,0.00
2018-07-20T01:07:38.014Z,0.00
2018-07-20T01:08:38.189Z,0.00
2018-07-20T01:09:38.365Z,0.00
2018-07-20T01:10:38.546Z,0.00
2018-07-20T01:11:38.718Z,0.00
2018-07-20T01:12:38.891Z,0.00
2018-07-20T01:13:39.064Z,0.00
2018-07-20T01:14:39.239Z,0.00
2018-07-20T01:15:39.421Z,0.00
2018-07-20T01:16:39.597Z,0.00
2018-07-20T01:17:39.766Z,0.00
2018-07-20T01:18:39.940Z,0.00
2018-07-20T01:19:40.113Z,0.00
2018-07-20T01:20:40.293Z,0.00
2018-07-20T01:21:40.470Z,0.00
2018-07-20T01:22:40.649Z,0.00
2018-07-20T01:23:40.812Z,0.00
2018-07-20T01:24:40.989Z,0.00
2018-07-20T01:25:41.164Z,0.00
2018-07-20T01:26:41.347Z,0.00
2018-07-20T01:27:41.522Z,0.00
2018-07-20T01:28:41.690Z,0.00
2018-07-20T01:29:41.866Z,0.00
2018-07-20T01:30:42.048Z,0.00
2018-07-20T01:31:42.227Z,0.00
2018-07-20T01:32:42.400Z,0.00
2018-07-20T01:33:42.575Z,0.00
2018-07-20T01:34:42.749Z,0.00
2018-07-20T01:35:42.918Z,0.00
2018-07-20T01:36:43.089Z,0.00
2018-07-20T01:37:43.266Z,0.00
2018-07-20T01:38:43.445Z,0.00
2018-07-20T01:39:43.627Z,0.00
2018-07-20T01:40:43.798Z,0.00
2018-07-20T01:41:43.975Z,0.00
2018-07-20T01:42:44.146Z,0.00
2018-07-20T01:43:44.319Z,0.00
2018-07-20T01:44:44.495Z,0.00
2018-07-20T01:45:44.672Z,0.00
2018-07-20T01:46:44.839Z,0.00
2018-07-20T01:47:45.017Z,0.00
2018-07-20T01:48:45.193Z,0.00
2018-07-20T01:49:45.369Z,0.00
2018-07-20T01:50:45.541Z,0.00
2018-07-20T01:51:45.713Z,0.00
2018-07-20T01:52:45.886Z,0.00
2018-07-20T01:53:46.064Z,0.00
2018-07-20T01:54:46.247Z,0.00
2018-07-20T01:55:46.416Z,0.00
2018-07-20T01:56:46.591Z,0.00
2018-07-20T01:57:46.768Z,0.00
2018-07-20T01:58:46.939Z,0.00
2018-07-20T01:59:47.109Z,0.00
2018-07-20T02:00:47.280Z,0.00
2018-07-20T02:01:47.461Z,0.00
2018-07-20T02:02:47.629Z,0.00
2018-07-20T02:03:47.813Z,0.00
2018-07-20T02:04:47.999Z,0.00
2018-07-20T02:05:48.166Z,0.00
2018-07-20T02:06:48.345Z,0.00
2018-07-20T02:07:48.510Z,0.00
2018-07-20T02:08:48.692Z,0.00
2018-07-20T02:09:49.026Z,0.00
2018-07-20T02:10:49.072Z,0.00
2018-07-20T02:11:49.273Z,0.00
2018-07-20T02:12:49.447Z,0.00
2018-07-20T02:13:49.629Z,0.00
2018-07-20T02:14:49.799Z,0.00
2018-07-20T02:15:49.975Z,0.00
2018-07-20T02:16:50.159Z,0.00
2018-07-20T02:17:50.331Z,0.00
2018-07-20T02:18:50.517Z,0.00
2018-07-20T02:19:50.689Z,0.00
2018-07-20T02:20:50.867Z,0.00
2018-07-20T02:21:51.041Z,0.00
2018-07-20T02:22:51.220Z,0.00
2018-07-20T02:23:51.391Z,0.00
2018-07-20T02:24:51.568Z,0.00
2018-07-20T02:25:51.740Z,0.00
2018-07-20T02:26:51.914Z,0.00
2018-07-20T02:27:52.098Z,0.00
2018-07-20T02:28:52.271Z,0.00
2018-07-20T02:29:52.442Z,0.00
2018-07-20T02:30:52.625Z,0.00
2018-07-20T02:31:52.799Z,0.00
2018-07-20T02:32:52.968Z,0.00
2018-07-20T02:33:53.135Z,0.00
2018-07-20T02:34:53.313Z,0.00
2018-07-20T02:35:53.480Z,0.00
2018-07-20T02:36:53.655Z,0.00
2018-07-20T02:37:53.839Z,0.00
2018-07-20T02:38:54.004Z,0.00
2018-07-20T02:39:54.182Z,0.00
2018-07-20T02:40:54.354Z,0.00
2018-07-20T02:41:54.535Z,0.00
2018-07-20T02:42:54.710Z,0.00
2018-07-20T02:43:54.883Z,0.00
2018-07-20T02:44:55.063Z,0.00
2018-07-20T02:45:55.243Z,0.00
2018-07-20T02:46:55.423Z,0.00
2018-07-20T02:47:55.588Z,0.00
2018-07-20T02:48:55.769Z,0.00
2018-07-20T02:49:55.940Z,0.00
2018-07-20T02:50:56.118Z,0.00
2018-07-20T02:51:56.295Z,0.00
2018-07-20T02:52:56.466Z,0.00
2018-07-20T02:53:56.650Z,4.00
2018-07-20T02:54:56.830Z,4.00
2018-07-20T02:55:57.011Z,0.00
2018-07-20T02:56:57.189Z,4.00
2018-07-20T02:57:57.364Z,4.00
2018-07-20T02:58:57.537Z,0.00
2018-07-20T02:59:57.706Z,4.00
2018-07-20T03:00:57.876Z,8.00
2018-07-20T03:01:58.047Z,4.00
2018-07-20T03:02:58.226Z,8.00
2018-07-20T03:03:58.392Z,8.00
2018-07-20T03:04:58.574Z,8.00
2018-07-20T03:05:58.746Z,8.00
2018-07-20T03:06:58.923Z,8.00
2018-07-20T03:07:59.096Z,12.00
2018-07-20T03:08:59.307Z,16.00
2018-07-20T03:09:59.445Z,16.00
2018-07-20T03:10:59.617Z,16.00
2018-07-20T03:11:59.793Z,20.00
2018-07-20T03:12:59.972Z,24.00
2018-07-20T03:14:00.155Z,28.00
2018-07-20T03:15:00.335Z,28.00
2018-07-20T03:16:00.506Z,32.00
2018-07-20T03:17:00.681Z,40.00
2018-07-20T03:18:00.848Z,44.00
2018-07-20T03:19:01.020Z,48.00
2018-07-20T03:20:01.195Z,56.00
2018-07-20T03:21:01.452Z,56.00
2018-07-20T03:22:01.557Z,64.00
2018-07-20T03:23:01.723Z,72.00
2018-07-20T03:24:01.989Z,76.00
2018-07-20T03:25:02.041Z,88.00
2018-07-20T03:26:02.215Z,92.00
2018-07-20T03:27:02.389Z,100.00
2018-07-20T03:28:02.568Z,112.00
2018-07-20T03:29:02.740Z,120.00
2018-07-20T03:30:02.919Z,132.00
2018-07-20T03:31:03.109Z,140.00
2018-07-20T03:32:03.272Z,152.00
2018-07-20T03:33:03.449Z,164.00
2018-07-20T03:34:03.620Z,172.00
2018-07-20T03:35:03.793Z,188.00
2018-07-20T03:36:03.968Z,200.00
2018-07-20T03:37:04.142Z,212.00
2018-07-20T03:38:04.318Z,232.00
2018-07-20T03:39:04.494Z,244.00
2018-07-20T03:40:04.667Z,260.00
2018-07-20T03:41:04.840Z,276.00
2018-07-20T03:42:05.016Z,296.00
2018-07-20T03:43:05.197Z,312.00
2018-07-20T03:44:05.367Z,328.00
2018-07-20T03:45:05.544Z,352.00
2018-07-20T03:46:05.722Z,372.00
2018-07-20T03:47:05.900Z,392.00
2018-07-20T03:48:06.070Z,416.00
2018-07-20T03:49:06.280Z,436.00
2018-07-20T03:50:06.425Z,456.00
2018-07-20T03:51:06.596Z,480.00
2018-07-20T03:52:06.798Z,504.00
2018-07-20T03:53:06.942Z,528.00
2018-07-20T03:54:07.117Z,552.00
2018-07-20T03:55:07.303Z,580.00
2018-07-20T03:56:07.476Z,604.00
2018-07-20T03:57:07.649Z,632.00
2018-07-20T03:58:07.832Z,660.00
2018-07-20T03:59:08.007Z,688.00
2018-07-20T04:00:08.179Z,720.00
2018-07-20T04:01:08.361Z,752.00
2018-07-20T04:02:08.545Z,784.00
2018-07-20T04:03:08.720Z,812.00
2018-07-20T04:04:08.893Z,852.00
2018-07-20T04:05:09.089Z,884.00
2018-07-20T04:06:09.293Z,920.00
2018-07-20T04:07:09.482Z,956.00
2018-07-20T04:08:09.659Z,992.00
2018-07-20T04:09:09.832Z,1028.00
2018-07-20T04:10:10.058Z,1068.00
2018-07-20T04:11:10.203Z,1104.00
2018-07-20T04:12:10.372Z,1140.00
2018-07-20T04:13:10.553Z,1176.00
2018-07-20T04:14:10.738Z,1216.00
2018-07-20T04:15:10.907Z,1248.00
2018-07-20T04:16:11.092Z,1288.00
2018-07-20T04:17:11.278Z,1324.00
2018-07-20T04:18:11.451Z,1360.00
2018-07-20T04:19:11.630Z,1400.00
2018-07-20T04:20:11.914Z,1436.00
2018-07-20T04:21:11.957Z,1476.00
2018-07-20T04:22:12.134Z,1516.00
2018-07-20T04:23:12.308Z,1556.00
2018-07-20T04:24:12.483Z,1596.00
2018-07-20T04:25:12.662Z,1628.00
2018-07-20T04:26:13.843Z,1652.00
2018-07-20T04:27:13.373Z,1672.00
2018-07-20T04:28:13.404Z,1700.00
2018-07-20T04:29:13.578Z,1744.00
2018-07-20T04:30:13.674Z,1800.00
2018-07-20T04:31:13.642Z,1856.00
2018-07-20T04:32:13.826Z,1916.00
2018-07-20T04:33:13.990Z,1968.00
2018-07-20T04:34:14.173Z,2016.00
2018-07-20T04:35:14.359Z,2076.00
2018-07-20T04:36:14.536Z,2136.00
2018-07-20T04:37:14.701Z,2196.00
2018-07-20T04:38:14.878Z,2260.00
2018-07-20T04:39:15.095Z,2312.00
2018-07-20T04:40:15.255Z,2360.00
2018-07-20T04:41:15.429Z,2412.00
2018-07-20T04:42:15.630Z,2472.00
2018-07-20T04:43:15.790Z,2524.00
2018-07-20T04:44:17.659Z,2580.00
2018-07-20T04:45:18.027Z,2632.00
2018-07-20T04:46:17.184Z,2680.00
2018-07-20T04:47:17.592Z,2732.00
2018-07-20T04:48:18.663Z,2788.00
2018-07-20T04:49:18.009Z,2840.00
2018-07-20T04:50:18.830Z,2896.00
2018-07-20T04:51:18.235Z,2960.00
2018-07-20T04:52:19.721Z,3028.00
2018-07-20T04:53:19.520Z,3100.00
2018-07-20T04:54:18.896Z,3176.00
2018-07-20T04:55:19.574Z,3236.00
2018-07-20T04:56:18.277Z,3288.00
2018-07-20T04:57:18.456Z,3348.00
2018-07-20T04:58:18.649Z,3404.00
2018-07-20T04:59:21.622Z,3452.00
2018-07-20T05:00:19.855Z,3500.00
2018-07-20T05:01:19.842Z,3540.00
2018-07-20T05:02:19.362Z,3568.00
2018-07-20T05:03:22.356Z,3592.00
2018-07-20T05:04:19.649Z,3612.00
2018-07-20T05:05:19.852Z,3628.00
2018-07-20T05:06:20.042Z,3632.00
2018-07-20T05:07:20.216Z,3656.00
2018-07-20T05:08:20.419Z,3700.00
2018-07-20T05:09:20.605Z,3764.00
2018-07-20T05:10:20.787Z,3828.00
2018-07-20T05:11:21.007Z,3888.00
2018-07-20T05:12:21.189Z,3964.00
2018-07-20T05:13:21.361Z,4068.00
2018-07-20T05:14:21.815Z,4168.00
2018-07-20T05:15:21.716Z,4220.00
2018-07-20T05:16:21.866Z,4280.00
2018-07-20T05:17:22.157Z,4332.00
2018-07-20T05:18:22.233Z,4372.00
2018-07-20T05:19:22.414Z,4424.00
2018-07-20T05:20:22.591Z,4480.00
2018-07-20T05:21:22.771Z,4516.00
2018-07-20T05:22:22.967Z,4584.00
2018-07-20T05:23:23.147Z,4664.00
2018-07-20T05:24:23.322Z,4708.00
2018-07-20T05:25:23.507Z,4748.00
2018-07-20T05:26:23.694Z,4788.00
2018-07-20T05:27:23.869Z,4784.00
2018-07-20T05:28:24.049Z,4868.00
2018-07-20T05:29:24.251Z,4912.00
2018-07-20T05:30:25.040Z,4956.00
2018-07-20T05:31:24.740Z,5036.00
2018-07-20T05:32:27.012Z,5080.00
2018-07-20T05:33:25.054Z,5144.00
2018-07-20T05:34:25.241Z,5196.00
2018-07-20T05:35:25.410Z,5284.00
2018-07-20T05:36:25.583Z,5356.00
2018-07-20T05:37:25.760Z,5464.00
2018-07-20T05:38:25.940Z,5540.00
2018-07-20T05:39:26.227Z,5624.00
2018-07-20T05:40:26.367Z,5720.00
2018-07-20T05:41:26.414Z,5828.00
2018-07-20T05:42:26.597Z,5916.00
2018-07-20T05:43:28.480Z,6012.00
2018-07-20T05:44:26.911Z,6120.00
2018-07-20T05:45:27.085Z,6200.00
2018-07-20T05:46:27.263Z,6316.00
2018-07-20T05:47:27.441Z,6432.00
2018-07-20T05:48:27.612Z,6520.00
2018-07-20T05:49:27.797Z,6584.00
2018-07-20T05:50:27.963Z,6644.00
2018-07-20T05:51:28.140Z,6716.00
2018-07-20T05:52:28.327Z,6772.00
2018-07-20T05:53:28.560Z,6828.00
2018-07-20T05:54:28.704Z,6872.00
2018-07-20T05:55:28.883Z,6980.00
2018-07-20T05:56:29.069Z,7112.00
2018-07-20T05:57:29.244Z,7296.00
2018-07-20T05:58:29.424Z,7488.00
2018-07-20T05:59:29.602Z,7660.00
2018-07-20T06:00:29.800Z,7840.00
2018-07-20T06:01:29.975Z,8036.00
2018-07-20T06:02:30.154Z,8236.00
2018-07-20T06:03:30.371Z,8548.00
2018-07-20T06:04:30.554Z,8904.00
2018-07-20T06:05:30.779Z,9172.00
2018-07-20T06:06:30.943Z,9340.00
2018-07-20T06:07:31.127Z,9772.00
2018-07-20T06:08:31.368Z,10200.00
2018-07-20T06:09:31.422Z,10812.00
2018-07-20T06:10:31.599Z,11684.00
2018-07-20T06:11:31.783Z,20736.00
2018-07-20T06:12:31.991Z,45760.00
2018-07-20T06:13:33.234Z,69696.00
2018-07-20T06:14:33.661Z,76160.00
2018-07-20T06:15:32.719Z,77152.00
2018-07-20T06:16:32.697Z,77376.00
2018-07-20T06:17:32.891Z,78560.00
2018-07-20T06:18:33.078Z,71712.00
2018-07-20T06:19:33.276Z,72576.00
2018-07-20T06:20:33.482Z,72320.00
2018-07-20T06:21:33.665Z,74144.00
2018-07-20T06:22:33.853Z,72736.00
2018-07-20T06:23:34.067Z,75808.00
2018-07-20T06:24:34.217Z,78688.00
2018-07-20T06:25:34.399Z,80832.00
2018-07-20T06:26:34.607Z,82176.00
2018-07-20T06:27:34.792Z,85056.00
2018-07-20T06:28:35.023Z,85664.00
2018-07-20T06:29:35.274Z,83904.00
2018-07-20T06:30:35.383Z,83232.00
2018-07-20T06:31:35.568Z,84448.00
2018-07-20T06:32:35.761Z,81760.00
2018-07-20T06:33:35.945Z,82816.00
2018-07-20T06:34:36.126Z,84000.00
2018-07-20T06:35:36.308Z,84032.00
2018-07-20T06:36:36.837Z,81184.00
2018-07-20T06:37:36.657Z,84160.00
2018-07-20T06:38:36.852Z,79712.00
2018-07-20T06:39:37.033Z,81792.00
2018-07-20T06:40:37.229Z,84864.00
2018-07-20T06:41:37.403Z,78528.00
2018-07-20T06:42:37.591Z,74304.00
2018-07-20T06:43:37.777Z,78240.00
2018-07-20T06:44:37.967Z,79360.00
2018-07-20T06:45:38.171Z,78272.00
2018-07-20T06:46:38.546Z,78208.00
2018-07-20T06:47:38.553Z,79008.00
2018-07-20T06:48:38.798Z,78592.00
2018-07-20T06:49:38.886Z,81024.00
2018-07-20T06:50:39.086Z,81664.00
2018-07-20T06:51:39.266Z,84928.00
2018-07-20T06:52:39.471Z,81536.00
2018-07-20T06:53:39.648Z,82464.00
2018-07-20T06:54:39.835Z,81472.00
2018-07-20T06:55:40.024Z,83040.00
2018-07-20T06:56:40.210Z,85568.00
2018-07-20T06:57:40.420Z,83872.00
2018-07-20T06:58:40.640Z,85440.00
2018-07-20T06:59:40.829Z,78336.00
2018-07-20T07:00:41.006Z,84256.00
2018-07-20T07:01:41.233Z,79104.00
2018-07-20T07:02:41.420Z,78464.00
2018-07-20T07:03:41.611Z,78912.00
2018-07-20T07:04:41.796Z,79776.00
2018-07-20T07:05:41.983Z,80384.00
2018-07-20T07:06:42.170Z,81632.00
2018-07-20T07:07:42.379Z,82112.00
2018-07-20T07:08:42.569Z,80416.00
2018-07-20T07:09:42.767Z,82528.00
2018-07-20T07:10:42.972Z,80736.00
2018-07-20T07:11:43.173Z,78208.00
2018-07-20T07:12:43.368Z,74592.00
2018-07-20T07:13:43.577Z,70400.00
2018-07-20T07:14:43.770Z,71360.00
2018-07-20T07:15:43.999Z,72096.00
2018-07-20T07:16:44.198Z,68000.00
2018-07-20T07:17:44.378Z,70048.00
2018-07-20T07:18:44.589Z,72896.00
2018-07-20T07:19:44.779Z,70080.00
2018-07-20T07:20:44.968Z,70336.00
2018-07-20T07:21:45.181Z,69728.00
2018-07-20T07:22:45.379Z,75616.00
2018-07-20T07:23:45.621Z,77952.00
2018-07-20T07:24:45.778Z,81312.00
2018-07-20T07:25:45.963Z,82368.00
2018-07-20T07:26:46.157Z,76128.00
2018-07-20T07:27:46.350Z,76320.00
2018-07-20T07:28:46.952Z,72800.00
2018-07-20T07:29:46.827Z,68032.00
2018-07-20T07:30:46.898Z,63552.00
2018-07-20T07:31:47.097Z,64448.00
2018-07-20T07:32:47.291Z,65216.00
2018-07-20T07:33:47.483Z,68064.00
2018-07-20T07:34:47.677Z,69440.00
2018-07-20T07:35:47.913Z,71648.00
2018-07-20T07:36:48.052Z,73440.00
2018-07-20T07:37:48.246Z,75872.00
2018-07-20T07:38:48.454Z,70048.00
2018-07-20T07:39:48.655Z,68960.00
2018-07-20T07:40:48.880Z,70976.00
2018-07-20T07:41:49.367Z,71520.00
2018-07-20T07:42:49.344Z,70208.00
2018-07-20T07:43:49.442Z,72864.00
2018-07-20T07:44:49.621Z,74752.00
2018-07-20T07:45:50.061Z,73504.00
2018-07-20T07:46:49.944Z,72480.00
2018-07-20T07:47:50.136Z,73664.00
2018-07-20T07:48:50.332Z,76608.00
2018-07-20T07:49:50.534Z,72000.00
2018-07-20T07:50:50.730Z,71872.00
2018-07-20T07:51:50.951Z,73248.00
2018-07-20T07:52:51.273Z,76544.00
2018-07-20T07:53:51.321Z,79584.00
2018-07-20T07:54:51.571Z,79552.00
2018-07-20T07:55:51.687Z,75680.00
2018-07-20T07:56:51.861Z,76544.00
2018-07-20T07:57:52.056Z,74080.00
2018-07-20T07:58:52.262Z,65760.00
2018-07-20T07:59:52.457Z,64608.00
2018-07-20T08:00:52.701Z,74720.00
2018-07-20T08:01:52.875Z,78112.00
2018-07-20T08:02:53.078Z,81632.00
2018-07-20T08:03:53.282Z,80096.00
2018-07-20T08:04:53.495Z,81376.00
2018-07-20T08:05:53.699Z,82144.00
2018-07-20T08:06:53.988Z,80096.00
2018-07-20T08:07:54.052Z,81408.00
2018-07-20T08:08:54.253Z,86464.00
2018-07-20T08:09:54.540Z,88544.00
2018-07-20T08:10:54.633Z,90528.00
2018-07-20T08:11:54.843Z,88704.00
2018-07-20T08:12:55.072Z,88352.00
2018-07-20T08:13:55.277Z,84960.00
2018-07-20T08:14:55.476Z,76768.00
2018-07-20T08:15:55.700Z,80928.00
2018-07-20T08:16:55.876Z,76992.00
2018-07-20T08:17:56.066Z,82720.00
2018-07-20T08:18:56.268Z,79456.00
2018-07-20T08:19:56.724Z,80288.00
2018-07-20T08:20:56.581Z,76736.00
2018-07-20T08:21:56.843Z,80992.00
2018-07-20T08:22:57.081Z,84000.00
2018-07-20T08:23:57.726Z,81280.00
2018-07-20T08:24:57.391Z,78144.00
2018-07-20T08:25:58.094Z,68288.00
2018-07-20T08:26:57.781Z,68384.00
2018-07-20T08:27:58.253Z,65760.00
2018-07-20T08:28:58.177Z,67360.00
2018-07-20T08:29:58.622Z,69280.00
2018-07-20T08:30:58.613Z,74272.00
2018-07-20T08:31:58.902Z,75552.00
2018-07-20T08:32:58.840Z,75584.00
2018-07-20T08:33:59.033Z,69632.00
2018-07-20T08:34:59.222Z,69664.00
2018-07-20T08:35:59.413Z,74272.00
2018-07-20T08:36:59.612Z,72576.00
2018-07-20T08:37:59.809Z,75552.00
2018-07-20T08:39:00.384Z,72256.00
2018-07-20T08:40:00.276Z,74240.00
2018-07-20T08:41:00.339Z,68192.00
2018-07-20T08:42:00.531Z,75680.00
2018-07-20T08:43:00.719Z,77984.00
2018-07-20T08:44:00.936Z,80768.00
2018-07-20T08:45:01.143Z,79424.00
2018-07-20T08:46:01.457Z,82144.00
2018-07-20T08:47:01.894Z,84544.00
2018-07-20T08:48:01.677Z,82816.00
2018-07-20T08:49:01.862Z,82944.00
2018-07-20T08:50:02.080Z,81888.00
2018-07-20T08:51:02.256Z,79168.00
2018-07-20T08:52:02.446Z,77792.00
2018-07-20T08:53:02.642Z,81472.00
2018-07-20T08:54:02.932Z,84192.00
2018-07-20T08:55:03.352Z,83264.00
2018-07-20T08:56:03.283Z,82848.00
2018-07-20T08:57:03.475Z,80992.00
2018-07-20T08:58:03.909Z,76960.00
2018-07-20T08:59:04.172Z,72672.00
2018-07-20T09:00:04.377Z,63392.00
2018-07-20T09:01:04.377Z,48288.00
2018-07-20T09:02:04.417Z,35552.00
2018-07-20T09:03:04.660Z,31936.00
2018-07-20T09:04:04.739Z,31040.00
2018-07-20T09:05:04.968Z,31328.00
2018-07-20T09:06:05.170Z,31328.00
2018-07-20T09:07:05.373Z,31072.00
2018-07-20T09:08:05.581Z,32064.00
2018-07-20T09:09:05.771Z,31392.00
2018-07-20T09:10:06.888Z,31200.00
2018-07-20T09:11:06.189Z,30272.00
2018-07-20T09:12:06.400Z,29568.00
2018-07-20T09:13:06.619Z,30144.00
2018-07-20T09:14:06.790Z,29760.00
2018-07-20T09:15:06.977Z,29824.00
2018-07-20T09:16:07.171Z,30336.00
2018-07-20T09:17:07.437Z,28736.00
2018-07-20T09:18:08.086Z,28576.00
2018-07-20T09:19:07.661Z,29248.00
2018-07-20T09:20:07.844Z,29952.00
2018-07-20T09:21:08.059Z,28320.00
2018-07-20T09:22:08.254Z,27936.00
2018-07-20T09:23:08.453Z,29024.00
2018-07-20T09:24:08.638Z,29888.00
2018-07-20T09:25:08.970Z,24096.00
2018-07-20T09:26:08.961Z,27360.00
2018-07-20T09:27:09.174Z,28192.00
2018-07-20T09:28:09.634Z,29600.00
2018-07-20T09:29:09.546Z,31104.00
2018-07-20T09:30:09.759Z,33184.00
2018-07-20T09:31:09.989Z,34816.00
2018-07-20T09:32:10.183Z,35712.00
2018-07-20T09:33:10.408Z,37504.00
2018-07-20T09:34:10.687Z,38880.00
2018-07-20T09:35:10.817Z,39456.00
2018-07-20T09:36:11.012Z,41280.00
2018-07-20T09:37:11.195Z,46464.00
2018-07-20T09:38:11.774Z,56896.00
2018-07-20T09:39:11.633Z,73056.00
2018-07-20T09:40:11.702Z,84640.00
2018-07-20T09:41:11.928Z,90240.00
2018-07-20T09:42:12.181Z,85088.00
2018-07-20T09:43:12.227Z,75168.00
2018-07-20T09:44:12.455Z,73632.00
2018-07-20T09:45:12.709Z,69760.00
2018-07-20T09:46:12.777Z,59360.00
2018-07-20T09:47:12.979Z,50528.00
2018-07-20T09:48:13.288Z,43456.00
2018-07-20T09:49:13.437Z,41376.00
2018-07-20T09:50:13.531Z,43872.00
2018-07-20T09:51:13.720Z,43456.00
2018-07-20T09:52:13.961Z,42784.00
2018-07-20T09:53:14.147Z,40352.00
2018-07-20T09:54:14.348Z,38080.00
2018-07-20T09:55:14.548Z,36704.00
2018-07-20T09:56:14.739Z,36992.00
2018-07-20T09:57:14.921Z,36704.00
2018-07-20T09:58:15.294Z,38336.00
2018-07-20T09:59:15.315Z,38688.00
2018-07-20T10:00:15.411Z,38176.00
2018-07-20T10:01:16.422Z,35520.00
2018-07-20T10:02:15.815Z,35584.00
2018-07-20T10:03:16.023Z,35264.00
2018-07-20T10:04:16.243Z,32608.00
2018-07-20T10:05:16.442Z,30688.00
2018-07-20T10:06:16.723Z,31904.00
2018-07-20T10:07:16.861Z,30336.00
2018-07-20T10:08:17.068Z,30080.00
2018-07-20T10:09:17.353Z,31136.00
2018-07-20T10:10:17.416Z,30080.00
2018-07-20T10:11:17.642Z,24160.00
2018-07-20T10:12:20.480Z,17408.00
2018-07-20T10:13:19.365Z,14496.00
2018-07-20T10:14:18.261Z,13828.00
2018-07-20T10:15:18.292Z,13400.00
2018-07-20T10:16:18.588Z,12936.00
2018-07-20T10:17:18.724Z,12948.00
2018-07-20T10:18:18.989Z,12624.00
2018-07-20T10:19:19.024Z,12876.00
2018-07-20T10:20:19.276Z,12412.00
2018-07-20T10:21:19.584Z,12436.00
2018-07-20T10:22:19.651Z,12656.00
2018-07-20T10:23:19.764Z,12808.00
2018-07-20T10:24:19.890Z,12796.00
2018-07-20T10:25:19.947Z,12592.00
2018-07-20T10:26:20.154Z,12328.00
2018-07-20T10:27:20.380Z,12196.00
2018-07-20T10:28:20.607Z,11948.00
2018-07-20T10:29:20.799Z,11712.00
2018-07-20T10:30:21.099Z,11496.00
2018-07-20T10:31:21.209Z,11468.00
2018-07-20T10:32:21.608Z,11436.00
2018-07-20T10:33:21.476Z,11284.00
2018-07-20T10:34:21.649Z,11248.00
2018-07-20T10:35:21.879Z,11116.00
2018-07-20T10:36:22.055Z,10892.00
2018-07-20T10:37:22.237Z,10368.00
2018-07-20T10:38:22.433Z,10028.00
2018-07-20T10:39:22.751Z,9840.00
2018-07-20T10:40:22.809Z,9924.00
2018-07-20T10:41:23.034Z,9908.00
2018-07-20T10:42:23.225Z,9848.00
2018-07-20T10:43:23.415Z,9760.00
2018-07-20T10:44:23.869Z,9600.00
2018-07-20T10:45:23.822Z,9444.00
2018-07-20T10:46:24.033Z,9324.00
2018-07-20T10:47:24.222Z,9200.00
2018-07-20T10:48:24.471Z,9156.00
2018-07-20T10:49:24.863Z,9132.00
2018-07-20T10:50:24.777Z,9032.00
2018-07-20T10:51:24.859Z,8904.00
2018-07-20T10:52:25.043Z,8744.00
2018-07-20T10:53:25.571Z,8572.00
2018-07-20T10:54:25.398Z,8684.00
2018-07-20T10:55:25.584Z,8680.00
2018-07-20T10:56:25.787Z,8660.00
2018-07-20T10:57:26.012Z,8632.00
2018-07-20T10:58:26.235Z,8540.00
2018-07-20T10:59:26.770Z,8564.00
2018-07-20T11:00:26.940Z,8488.00
2018-07-20T11:01:27.061Z,8344.00
2018-07-20T11:02:26.986Z,8284.00
2018-07-20T11:03:27.340Z,8156.00
2018-07-20T11:04:27.168Z,8172.00
2018-07-20T11:05:27.369Z,8180.00
2018-07-20T11:06:27.556Z,8140.00
2018-07-20T11:07:27.906Z,8080.00
2018-07-20T11:08:27.909Z,8028.00
2018-07-20T11:09:28.101Z,8004.00
2018-07-20T11:10:28.344Z,8000.00
2018-07-20T11:11:28.407Z,7964.00
2018-07-20T11:12:28.625Z,7952.00
2018-07-20T11:13:28.860Z,8068.00
2018-07-20T11:14:29.124Z,8144.00
2018-07-20T11:15:29.056Z,8208.00
2018-07-20T11:16:29.401Z,8228.00
2018-07-20T11:17:30.879Z,8276.00
2018-07-20T11:18:29.674Z,8344.00
2018-07-20T11:19:30.062Z,8368.00
2018-07-20T11:20:30.452Z,8452.00
2018-07-20T11:21:30.133Z,8532.00
2018-07-20T11:22:30.460Z,8656.00
2018-07-20T11:23:30.622Z,8772.00
2018-07-20T11:24:30.922Z,8840.00
2018-07-20T11:25:30.798Z,8908.00
2018-07-20T11:26:30.994Z,8992.00
2018-07-20T11:27:31.246Z,9072.00
2018-07-20T11:28:31.352Z,9144.00
2018-07-20T11:29:31.820Z,9208.00
2018-07-20T11:30:31.697Z,9256.00
2018-07-20T11:31:31.905Z,9312.00
2018-07-20T11:32:32.179Z,9384.00
2018-07-20T11:33:32.644Z,9460.00
2018-07-20T11:34:32.384Z,9512.00
2018-07-20T11:35:32.613Z,9596.00
2018-07-20T11:36:32.679Z,9636.00
2018-07-20T11:37:32.870Z,9660.00
2018-07-20T11:38:33.083Z,9640.00
2018-07-20T11:39:33.304Z,9620.00
2018-07-20T11:40:33.775Z,9580.00
2018-07-20T11:41:33.922Z,9524.00
2018-07-20T11:42:33.976Z,9464.00
2018-07-20T11:43:34.045Z,9372.00
2018-07-20T11:44:34.229Z,9284.00
2018-07-20T11:45:35.006Z,9184.00
2018-07-20T11:46:35.018Z,9064.00
2018-07-20T11:47:34.721Z,8980.00
2018-07-20T11:48:34.932Z,8860.00
2018-07-20T11:49:35.083Z,8744.00
2018-07-20T11:50:35.393Z,8608.00
2018-07-20T11:51:35.457Z,8488.00
2018-07-20T11:52:35.833Z,8352.00
2018-07-20T11:53:35.776Z,8220.00
2018-07-20T11:54:36.055Z,8048.00
2018-07-20T11:55:36.089Z,7876.00
2018-07-20T11:56:36.317Z,7780.00
2018-07-20T11:57:36.487Z,7656.00
2018-07-20T11:58:36.943Z,7564.00
2018-07-20T11:59:36.805Z,7472.00
2018-07-20T12:00:37.235Z,7452.00
2018-07-20T12:01:37.176Z,7380.00
2018-07-20T12:02:37.378Z,7316.00
2018-07-20T12:03:37.578Z,7260.00
2018-07-20T12:04:37.832Z,7200.00
2018-07-20T12:05:38.262Z,7156.00
2018-07-20T12:06:38.222Z,7096.00
2018-07-20T12:07:38.375Z,7008.00
2018-07-20T12:08:38.562Z,6932.00
2018-07-20T12:09:38.780Z,6848.00
2018-07-20T12:10:38.959Z,6788.00
2018-07-20T12:11:39.249Z,6752.00
2018-07-20T12:12:39.299Z,6784.00
2018-07-20T12:13:39.508Z,6816.00
2018-07-20T12:14:39.705Z,6832.00
2018-07-20T12:15:39.894Z,6832.00
2018-07-20T12:16:40.541Z,6856.00
2018-07-20T12:17:40.246Z,6944.00
2018-07-20T12:18:40.425Z,6996.00
2018-07-20T12:19:40.652Z,7088.00